createdAt,value
2023-04-16T00:00:16.425Z,51.216057
2023-04-16T00:01:16.424Z,51.216221
2023-04-16T00:02:16.468Z,51.216221
2023-04-16T00:03:16.701Z,51.216122
2023-04-16T00:04:16.489Z,51.216015
2023-04-16T00:05:16.392Z,51.216129
2023-04-16T00:06:16.381Z,51.216217
2023-04-16T00:07:16.388Z,51.216202
2023-04-16T00:08:16.377Z,51.216057
2023-04-16T00:09:16.389Z,51.216019
2023-04-16T00:10:16.384Z,51.217041
2023-04-16T00:11:16.356Z,51.216557
2023-04-16T00:12:16.359Z,51.216297
2023-04-16T00:13:16.362Z,51.215946
2023-04-16T00:14:16.347Z,51.215790
2023-04-16T00:15:16.344Z,51.216015
2023-04-16T00:16:16.358Z,51.215816
2023-04-16T00:17:16.308Z,51.216301
2023-04-16T00:18:16.307Z,51.216381
2023-04-16T00:19:16.292Z,51.216091
2023-04-16T00:20:16.296Z,51.215919
2023-04-16T00:21:16.294Z,51.216057
2023-04-16T00:22:16.279Z,51.216015
2023-04-16T00:23:16.273Z,51.215794
2023-04-16T00:24:16.273Z,51.215668
2023-04-16T00:25:16.254Z,51.215858
2023-04-16T00:26:16.265Z,51.215778
2023-04-16T00:27:16.253Z,51.216022
2023-04-16T00:28:16.239Z,51.215954
2023-04-16T00:29:16.251Z,51.216057
2023-04-16T00:30:16.232Z,51.215988
2023-04-16T00:31:16.268Z,51.215885
2023-04-16T00:32:16.218Z,51.215950
2023-04-16T00:33:16.426Z,51.215794
2023-04-16T00:34:16.200Z,51.215469
2023-04-16T00:35:16.207Z,51.215767
2023-04-16T00:36:16.184Z,51.215950
2023-04-16T00:37:16.174Z,51.215977
2023-04-16T00:38:16.182Z,51.216064
2023-04-16T00:39:16.156Z,51.216034
2023-04-16T00:40:16.175Z,51.216000
2023-04-16T00:41:16.152Z,51.215988
2023-04-16T00:42:16.166Z,51.216194
2023-04-16T00:43:16.138Z,51.216106
2023-04-16T00:44:16.131Z,51.216068
2023-04-16T00:45:16.146Z,51.215916
2023-04-16T00:46:16.125Z,51.215969
2023-04-16T00:47:16.168Z,51.215981
2023-04-16T00:48:16.100Z,51.216118
2023-04-16T00:49:16.093Z,51.216133
2023-04-16T00:50:16.111Z,51.216141
2023-04-16T00:51:16.089Z,51.216110
2023-04-16T00:52:16.075Z,51.216076
2023-04-16T00:53:16.089Z,51.216106
2023-04-16T00:54:16.106Z,51.216091
2023-04-16T00:55:16.082Z,51.216064
2023-04-16T00:56:17.562Z,51.216042
2023-04-16T00:57:16.050Z,51.216030
2023-04-16T00:58:16.051Z,51.216042
2023-04-16T00:59:16.031Z,51.216019
2023-04-16T01:00:16.031Z,51.216068
2023-04-16T01:01:16.041Z,51.216103
2023-04-16T01:02:16.058Z,51.216137
2023-04-16T01:03:16.123Z,51.216106
2023-04-16T01:04:16.151Z,51.216129
2023-04-16T01:05:16.005Z,51.215984
2023-04-16T01:06:16.013Z,51.216034
2023-04-16T01:07:15.992Z,51.216049
2023-04-16T01:08:15.991Z,51.215988
2023-04-16T01:09:15.980Z,51.216080
2023-04-16T01:10:15.966Z,51.216145
2023-04-16T01:11:15.951Z,51.216095
2023-04-16T01:12:16.948Z,51.216114
2023-04-16T01:13:15.952Z,51.216148
2023-04-16T01:14:15.946Z,51.216064
2023-04-16T01:15:15.938Z,51.216000
2023-04-16T01:16:15.979Z,51.216114
2023-04-16T01:17:15.924Z,51.216129
2023-04-16T01:18:15.913Z,51.216129
2023-04-16T01:19:15.897Z,51.216110
2023-04-16T01:20:15.905Z,51.216125
2023-04-16T01:21:15.883Z,51.216042
2023-04-16T01:22:15.894Z,51.216057
2023-04-16T01:23:15.874Z,51.216087
2023-04-16T01:24:15.919Z,51.216114
2023-04-16T01:25:15.950Z,51.216034
2023-04-16T01:26:15.861Z,51.216103
2023-04-16T01:27:15.850Z,51.216061
2023-04-16T01:28:15.845Z,51.216110
2023-04-16T01:29:15.879Z,51.216103
2023-04-16T01:30:15.832Z,51.216091
2023-04-16T01:31:15.864Z,51.216087
2023-04-16T01:32:15.815Z,51.216141
2023-04-16T01:33:15.816Z,51.216183
2023-04-16T01:34:15.835Z,51.216171
2023-04-16T01:35:15.802Z,51.216133
2023-04-16T01:36:15.793Z,51.216148
2023-04-16T01:37:15.790Z,51.216106
2023-04-16T01:38:15.793Z,51.216137
2023-04-16T01:39:15.801Z,51.216152
2023-04-16T01:40:15.775Z,51.216076
2023-04-16T01:41:15.777Z,51.216068
2023-04-16T01:42:15.795Z,51.216122
2023-04-16T01:43:15.775Z,51.216034
2023-04-16T01:44:15.737Z,51.216179
2023-04-16T01:45:15.752Z,51.216251
2023-04-16T01:46:15.770Z,51.216213
2023-04-16T01:47:15.802Z,51.216156
2023-04-16T01:48:15.709Z,51.216263
2023-04-16T01:49:15.699Z,51.216263
2023-04-16T01:50:15.721Z,51.216183
2023-04-16T01:51:15.699Z,51.216206
2023-04-16T01:52:15.680Z,51.216560
2023-04-16T01:53:15.677Z,51.216019
2023-04-16T01:54:15.688Z,51.215923
2023-04-16T01:55:15.664Z,51.216084
2023-04-16T01:56:15.669Z,51.216080
2023-04-16T01:57:15.646Z,51.216225
2023-04-16T01:58:15.651Z,51.216125
2023-04-16T01:59:15.631Z,51.216118
2023-04-16T02:00:15.630Z,51.216061
2023-04-16T02:01:15.652Z,51.216129
2023-04-16T02:02:15.644Z,51.216217
2023-04-16T02:03:15.744Z,51.216183
2023-04-16T02:04:16.647Z,51.216087
2023-04-16T02:05:15.599Z,51.216064
2023-04-16T02:06:15.599Z,51.216015
2023-04-16T02:07:15.607Z,51.216114
2023-04-16T02:08:15.576Z,51.216164
2023-04-16T02:09:15.568Z,51.216118
2023-04-16T02:10:15.561Z,51.216194
2023-04-16T02:11:15.551Z,51.216183
2023-04-16T02:12:15.548Z,51.216217
2023-04-16T02:13:15.534Z,51.216248
2023-04-16T02:14:15.524Z,51.216141
2023-04-16T02:15:15.512Z,51.216125
2023-04-16T02:16:15.541Z,51.216202
2023-04-16T02:17:15.516Z,51.216137
2023-04-16T02:18:15.517Z,51.216137
2023-04-16T02:19:15.502Z,51.216194
2023-04-16T02:20:15.484Z,51.216095
2023-04-16T02:21:15.499Z,51.215912
2023-04-16T02:22:15.472Z,51.215759
2023-04-16T02:23:15.486Z,51.216015
2023-04-16T02:24:15.478Z,51.216034
2023-04-16T02:25:15.466Z,51.216064
2023-04-16T02:26:15.474Z,51.216125
2023-04-16T02:27:15.458Z,51.216091
2023-04-16T02:28:15.438Z,51.215984
2023-04-16T02:29:15.440Z,51.216064
2023-04-16T02:30:15.425Z,51.216114
2023-04-16T02:31:15.435Z,51.216064
2023-04-16T02:32:15.443Z,51.216042
2023-04-16T02:33:15.408Z,51.215996
2023-04-16T02:34:15.430Z,51.215950
2023-04-16T02:35:15.388Z,51.216084
2023-04-16T02:36:15.385Z,51.216099
2023-04-16T02:37:15.412Z,51.216087
2023-04-16T02:38:15.403Z,51.216091
2023-04-16T02:39:15.369Z,51.216103
2023-04-16T02:40:15.353Z,51.215996
2023-04-16T02:41:15.341Z,51.215981
2023-04-16T02:42:15.328Z,51.215973
2023-04-16T02:43:15.349Z,51.215687
2023-04-16T02:44:15.331Z,51.215630
2023-04-16T02:45:15.316Z,51.215839
2023-04-16T02:46:15.326Z,51.215927
2023-04-16T02:47:15.317Z,51.215839
2023-04-16T02:48:15.328Z,51.215981
2023-04-16T02:49:15.292Z,51.216095
2023-04-16T02:50:15.285Z,51.216076
2023-04-16T02:51:15.280Z,51.216022
2023-04-16T02:52:15.738Z,51.216038
2023-04-16T02:53:16.289Z,51.215919
2023-04-16T02:54:15.269Z,51.216091
2023-04-16T02:55:15.284Z,51.216160
2023-04-16T02:56:15.252Z,51.216114
2023-04-16T02:57:15.242Z,51.216015
2023-04-16T02:58:15.241Z,51.216007
2023-04-16T02:59:15.239Z,51.216053
2023-04-16T03:00:15.257Z,51.216049
2023-04-16T03:01:15.267Z,51.216045
2023-04-16T03:02:15.319Z,51.216095
2023-04-16T03:03:15.252Z,51.216267
2023-04-16T03:04:15.245Z,51.216499
2023-04-16T03:05:15.189Z,51.216366
2023-04-16T03:06:15.207Z,51.216087
2023-04-16T03:07:15.190Z,51.215809
2023-04-16T03:08:15.180Z,51.215710
2023-04-16T03:09:15.186Z,51.215775
2023-04-16T03:10:15.166Z,51.215935
2023-04-16T03:11:15.161Z,51.216019
2023-04-16T03:12:15.169Z,51.215958
2023-04-16T03:13:15.149Z,51.216202
2023-04-16T03:14:15.138Z,51.216251
2023-04-16T03:15:15.131Z,51.216087
2023-04-16T03:16:15.142Z,51.216087
2023-04-16T03:17:15.114Z,51.215996
2023-04-16T03:18:15.217Z,51.216022
2023-04-16T03:19:15.098Z,51.216129
2023-04-16T03:20:15.095Z,51.216095
2023-04-16T03:21:15.093Z,51.216034
2023-04-16T03:22:15.086Z,51.215942
2023-04-16T03:23:15.107Z,51.215977
2023-04-16T03:24:15.075Z,51.216080
2023-04-16T03:25:15.070Z,51.216106
2023-04-16T03:26:15.058Z,51.216099
2023-04-16T03:27:15.049Z,51.216164
2023-04-16T03:28:15.190Z,51.216145
2023-04-16T03:29:15.038Z,51.216080
2023-04-16T03:30:15.035Z,51.216190
2023-04-16T03:31:15.064Z,51.216179
2023-04-16T03:32:15.022Z,51.216095
2023-04-16T03:33:15.020Z,51.216194
2023-04-16T03:34:15.122Z,51.216194
2023-04-16T03:35:15.011Z,51.216293
2023-04-16T03:36:14.994Z,51.216171
2023-04-16T03:37:14.995Z,51.216076
2023-04-16T03:38:14.982Z,51.215992
2023-04-16T03:39:14.970Z,51.216038
2023-04-16T03:40:14.956Z,51.215939
2023-04-16T03:41:14.955Z,51.216007
2023-04-16T03:42:14.956Z,51.216129
2023-04-16T03:43:14.942Z,51.216309
2023-04-16T03:44:14.946Z,51.216206
2023-04-16T03:45:14.931Z,51.216225
2023-04-16T03:46:14.969Z,51.216160
2023-04-16T03:47:14.911Z,51.216076
2023-04-16T03:48:14.924Z,51.215992
2023-04-16T03:49:14.894Z,51.216110
2023-04-16T03:50:14.925Z,51.216240
2023-04-16T03:51:14.890Z,51.216133
2023-04-16T03:52:16.234Z,51.216141
2023-04-16T03:53:17.117Z,51.216167
2023-04-16T03:54:15.736Z,51.216091
2023-04-16T03:55:15.741Z,51.216122
2023-04-16T03:56:15.699Z,51.216122
2023-04-16T03:57:15.869Z,51.216019
2023-04-16T03:58:16.071Z,51.216110
2023-04-16T03:59:16.847Z,51.216164
2023-04-16T04:00:17.339Z,51.215977
2023-04-16T04:01:16.770Z,51.216015
2023-04-16T04:02:16.820Z,51.215927
2023-04-16T04:03:16.280Z,51.216049
2023-04-16T04:04:16.561Z,51.216164
2023-04-16T04:05:16.193Z,51.215981
2023-04-16T04:06:16.767Z,51.216145
2023-04-16T04:07:16.567Z,51.216129
2023-04-16T04:08:15.958Z,51.216061
2023-04-16T04:09:16.781Z,51.216026
2023-04-16T04:10:15.671Z,51.216133
2023-04-16T04:11:16.060Z,51.216000
2023-04-16T04:12:15.805Z,51.216183
2023-04-16T04:13:17.219Z,51.216137
2023-04-16T04:14:15.996Z,51.216171
2023-04-16T04:15:16.242Z,51.216099
2023-04-16T04:16:15.567Z,51.216068
2023-04-16T04:17:15.817Z,51.216080
2023-04-16T04:18:16.133Z,51.216068
2023-04-16T04:19:15.522Z,51.216064
2023-04-16T04:20:15.553Z,51.216133
2023-04-16T04:21:15.832Z,51.216049
2023-04-16T04:22:15.496Z,51.216118
2023-04-16T04:23:16.256Z,51.216152
2023-04-16T04:24:16.474Z,51.216118
2023-04-16T04:25:15.840Z,51.215904
2023-04-16T04:26:15.972Z,51.216015
2023-04-16T04:27:17.550Z,51.216015
2023-04-16T04:28:16.780Z,51.216106
2023-04-16T04:29:15.419Z,51.216045
2023-04-16T04:30:16.199Z,51.215977
2023-04-16T04:31:15.755Z,51.215874
2023-04-16T04:32:15.680Z,51.215866
2023-04-16T04:33:16.664Z,51.215805
2023-04-16T04:34:15.603Z,51.215816
2023-04-16T04:35:16.501Z,51.215897
2023-04-16T04:36:16.983Z,51.215981
2023-04-16T04:37:15.461Z,51.216000
2023-04-16T04:38:16.209Z,51.215900
2023-04-16T04:39:17.978Z,51.215942
2023-04-16T04:40:16.875Z,51.215961
2023-04-16T04:41:16.474Z,51.215889
2023-04-16T04:42:18.716Z,51.215946
2023-04-16T04:43:17.614Z,51.215889
2023-04-16T04:44:16.735Z,51.216007
2023-04-16T04:45:17.727Z,51.215969
2023-04-16T04:46:20.117Z,51.216011
2023-04-16T04:47:17.491Z,51.216022
2023-04-16T04:48:19.694Z,51.216099
2023-04-16T04:49:16.260Z,51.216110
2023-04-16T04:50:15.496Z,51.215977
2023-04-16T04:51:15.215Z,51.215908
2023-04-16T04:52:15.303Z,51.215843
2023-04-16T04:53:15.818Z,51.215996
2023-04-16T04:54:18.399Z,51.216122
2023-04-16T04:55:16.703Z,51.216064
2023-04-16T04:56:15.236Z,51.216072
2023-04-16T04:57:16.165Z,51.215931
2023-04-16T04:58:15.661Z,51.215961
2023-04-16T04:59:15.223Z,51.216114
2023-04-16T05:00:15.817Z,51.216053
2023-04-16T05:01:16.394Z,51.216026
2023-04-16T05:02:16.238Z,51.215977
2023-04-16T05:03:15.810Z,51.215950
2023-04-16T05:04:15.103Z,51.215790
2023-04-16T05:05:15.981Z,51.215961
2023-04-16T05:06:15.670Z,51.215965
2023-04-16T05:07:15.095Z,51.215996
2023-04-16T05:08:15.407Z,51.215984
2023-04-16T05:09:15.117Z,51.215992
2023-04-16T05:10:15.274Z,51.215919
2023-04-16T05:11:15.074Z,51.215961
2023-04-16T05:12:15.035Z,51.215981
2023-04-16T05:13:15.172Z,51.215935
2023-04-16T05:14:15.151Z,51.216053
2023-04-16T05:15:15.088Z,51.216171
2023-04-16T05:16:15.844Z,51.216164
2023-04-16T05:17:15.112Z,51.216141
2023-04-16T05:18:15.257Z,51.216133
2023-04-16T05:19:15.184Z,51.216125
2023-04-16T05:20:16.124Z,51.216106
2023-04-16T05:21:15.000Z,51.216106
2023-04-16T05:22:14.993Z,51.216022
2023-04-16T05:23:15.156Z,51.216091
2023-04-16T05:24:15.260Z,51.216137
2023-04-16T05:25:17.936Z,51.216087
2023-04-16T05:26:15.804Z,51.216057
2023-04-16T05:27:16.306Z,51.216068
2023-04-16T05:28:16.257Z,51.216068
2023-04-16T05:29:15.811Z,51.216076
2023-04-16T05:30:15.203Z,51.216156
2023-04-16T05:31:15.840Z,51.216171
2023-04-16T05:32:17.047Z,51.216156
2023-04-16T05:33:14.934Z,51.216248
2023-04-16T05:34:15.074Z,51.216171
2023-04-16T05:35:17.294Z,51.216141
2023-04-16T05:36:16.238Z,51.216156
2023-04-16T05:37:16.267Z,51.216156
2023-04-16T05:38:15.719Z,51.216213
2023-04-16T05:39:16.868Z,51.216248
2023-04-16T05:40:15.674Z,51.216213
2023-04-16T05:41:15.319Z,51.216137
2023-04-16T05:42:15.944Z,51.216209
2023-04-16T05:43:15.137Z,51.216221
2023-04-16T05:44:15.496Z,51.216156
2023-04-16T05:45:15.864Z,51.216145
2023-04-16T05:46:15.144Z,51.216206
2023-04-16T05:47:14.948Z,51.216221
2023-04-16T05:48:14.927Z,51.216221
2023-04-16T05:49:15.424Z,51.216217
2023-04-16T05:50:15.381Z,51.216122
2023-04-16T05:51:15.691Z,51.216049
2023-04-16T05:52:14.984Z,51.216129
2023-04-16T05:53:14.939Z,51.216206
2023-04-16T05:54:14.719Z,51.216194
2023-04-16T05:55:14.909Z,51.216209
2023-04-16T05:56:15.722Z,51.216148
2023-04-16T05:57:15.066Z,51.216160
2023-04-16T05:58:15.023Z,51.216270
2023-04-16T05:59:14.781Z,51.216179
2023-04-16T06:00:15.955Z,51.216190
2023-04-16T06:01:15.140Z,51.216068
2023-04-16T06:02:15.222Z,51.216034
2023-04-16T06:03:17.369Z,51.216129
2023-04-16T06:04:15.364Z,51.216103
2023-04-16T06:05:18.062Z,51.215923
2023-04-16T06:06:15.561Z,51.215961
2023-04-16T06:07:14.685Z,51.216148
2023-04-16T06:08:14.984Z,51.216160
2023-04-16T06:09:16.374Z,51.216148
2023-04-16T06:10:14.685Z,51.216076
2023-04-16T06:11:14.760Z,51.216087
2023-04-16T06:12:14.715Z,51.216118
2023-04-16T06:13:14.814Z,51.215958
2023-04-16T06:14:15.129Z,51.216064
2023-04-16T06:15:14.930Z,51.216106
2023-04-16T06:16:15.721Z,51.216114
2023-04-16T06:17:16.883Z,51.216160
2023-04-16T06:18:17.708Z,51.216114
2023-04-16T06:19:14.972Z,51.216152
2023-04-16T06:20:15.684Z,51.216152
2023-04-16T06:21:14.449Z,51.216106
2023-04-16T06:22:15.166Z,51.216076
2023-04-16T06:23:15.218Z,51.216034
2023-04-16T06:24:15.290Z,51.216034
2023-04-16T06:25:16.824Z,51.215977
2023-04-16T06:26:15.281Z,51.216011
2023-04-16T06:27:14.800Z,51.215954
2023-04-16T06:28:14.528Z,51.215908
2023-04-16T06:29:15.958Z,51.215939
2023-04-16T06:30:14.723Z,51.215961
2023-04-16T06:31:15.140Z,51.216137
2023-04-16T06:32:14.755Z,51.216038
2023-04-16T06:33:14.733Z,51.216068
2023-04-16T06:34:14.957Z,51.216011
2023-04-16T06:35:16.180Z,51.215927
2023-04-16T06:36:18.957Z,51.216003
2023-04-16T06:37:15.469Z,51.216106
2023-04-16T06:38:14.938Z,51.216156
2023-04-16T06:39:14.733Z,51.216118
2023-04-16T06:40:15.428Z,51.216080
2023-04-16T06:41:15.257Z,51.216129
2023-04-16T06:42:15.479Z,51.216125
2023-04-16T06:43:16.193Z,51.216114
2023-04-16T06:44:15.652Z,51.216213
2023-04-16T06:45:14.677Z,51.216160
2023-04-16T06:46:15.172Z,51.216053
2023-04-16T06:47:14.790Z,51.216125
2023-04-16T06:48:14.690Z,51.216072
2023-04-16T06:49:14.539Z,51.216103
2023-04-16T06:50:14.699Z,51.216171
2023-04-16T06:51:14.852Z,51.216202
2023-04-16T06:52:14.610Z,51.216061
2023-04-16T06:53:14.677Z,51.216133
2023-04-16T06:54:14.874Z,51.216114
2023-04-16T06:55:15.070Z,51.216080
2023-04-16T06:56:13.697Z,51.216011
2023-04-16T06:57:14.663Z,51.215965
2023-04-16T06:58:13.663Z,51.215904
2023-04-16T06:59:13.649Z,51.215885
2023-04-16T07:00:13.640Z,51.216049
2023-04-16T07:01:13.647Z,51.216114
2023-04-16T07:02:13.719Z,51.216022
2023-04-16T07:03:13.793Z,51.216053
2023-04-16T07:04:13.707Z,51.216038
2023-04-16T07:05:13.622Z,51.216068
2023-04-16T07:06:13.620Z,51.216064
2023-04-16T07:07:13.614Z,51.216099
2023-04-16T07:08:13.603Z,51.216221
2023-04-16T07:09:13.601Z,51.216183
2023-04-16T07:10:13.598Z,51.216198
2023-04-16T07:11:13.579Z,51.216236
2023-04-16T07:12:13.570Z,51.216225
2023-04-16T07:13:13.602Z,51.216187
2023-04-16T07:14:13.573Z,51.216187
2023-04-16T07:15:13.638Z,51.216129
2023-04-16T07:16:13.574Z,51.216038
2023-04-16T07:17:13.531Z,51.216038
2023-04-16T07:18:13.584Z,51.216103
2023-04-16T07:19:13.521Z,51.216103
2023-04-16T07:20:13.523Z,51.216087
2023-04-16T07:21:13.516Z,51.216167
2023-04-16T07:22:13.507Z,51.216324
2023-04-16T07:23:13.507Z,51.216202
2023-04-16T07:24:13.497Z,51.216194
2023-04-16T07:25:13.498Z,51.216148
2023-04-16T07:26:13.514Z,51.216267
2023-04-16T07:27:13.502Z,51.216309
2023-04-16T07:28:13.499Z,51.216221
2023-04-16T07:29:13.495Z,51.216248
2023-04-16T07:30:13.482Z,51.216114
2023-04-16T07:31:13.463Z,51.216145
2023-04-16T07:32:15.324Z,51.216022
2023-04-16T07:33:14.432Z,51.216103
2023-04-16T07:34:13.492Z,51.215935
2023-04-16T07:35:13.453Z,51.215923
2023-04-16T07:36:13.428Z,51.216019
2023-04-16T07:37:13.414Z,51.215969
2023-04-16T07:38:13.423Z,51.216045
2023-04-16T07:39:13.397Z,51.216064
2023-04-16T07:40:13.426Z,51.216164
2023-04-16T07:41:13.407Z,51.216114
2023-04-16T07:42:13.410Z,51.216133
2023-04-16T07:43:13.367Z,51.216061
2023-04-16T07:44:13.378Z,51.216110
2023-04-16T07:45:13.355Z,51.216209
2023-04-16T07:46:13.385Z,51.216160
2023-04-16T07:47:13.374Z,51.216141
2023-04-16T07:48:13.344Z,51.216187
2023-04-16T07:49:13.355Z,51.216099
2023-04-16T07:50:13.342Z,51.216118
2023-04-16T07:51:13.318Z,51.216103
2023-04-16T07:52:13.303Z,51.216003
2023-04-16T07:53:13.321Z,51.215996
2023-04-16T07:54:13.291Z,51.216064
2023-04-16T07:55:13.304Z,51.216087
2023-04-16T07:56:13.284Z,51.215973
2023-04-16T07:57:13.281Z,51.215965
2023-04-16T07:58:13.274Z,51.216045
2023-04-16T08:00:14.298Z,51.216087
2023-04-16T08:01:13.257Z,51.216026
2023-04-16T08:02:13.332Z,51.215977
2023-04-16T08:03:13.444Z,51.216003
2023-04-16T08:04:13.310Z,51.216045
2023-04-16T08:05:13.401Z,51.216072
2023-04-16T08:06:13.236Z,51.216148
2023-04-16T08:07:13.217Z,51.216175
2023-04-16T08:08:13.207Z,51.216118
2023-04-16T08:09:13.200Z,51.216087
2023-04-16T08:10:13.191Z,51.216129
2023-04-16T08:11:13.193Z,51.216087
2023-04-16T08:12:13.177Z,51.216099
2023-04-16T08:13:13.168Z,51.216068
2023-04-16T08:14:13.160Z,51.216198
2023-04-16T08:15:13.161Z,51.216084
2023-04-16T08:16:13.171Z,51.216064
2023-04-16T08:17:13.181Z,51.216129
2023-04-16T08:18:13.156Z,51.216099
2023-04-16T08:19:13.341Z,51.216045
2023-04-16T08:20:16.375Z,51.216084
2023-04-16T08:21:15.121Z,51.216125
2023-04-16T08:22:13.127Z,51.216137
2023-04-16T08:23:13.146Z,51.216042
2023-04-16T08:24:13.100Z,51.216049
2023-04-16T08:25:13.103Z,51.216003
2023-04-16T08:26:13.100Z,51.216068
2023-04-16T08:27:19.096Z,51.216011
2023-04-16T08:28:15.085Z,51.215981
2023-04-16T08:29:13.285Z,51.216072
2023-04-16T08:30:13.060Z,51.216137
2023-04-16T08:31:13.100Z,51.216187
2023-04-16T08:32:13.038Z,51.216087
2023-04-16T08:33:13.099Z,51.216187
2023-04-16T08:34:13.039Z,51.216187
2023-04-16T08:35:13.032Z,51.216156
2023-04-16T08:36:13.027Z,51.216053
2023-04-16T08:37:13.019Z,51.216145
2023-04-16T08:38:13.012Z,51.216240
2023-04-16T08:39:13.185Z,51.216118
2023-04-16T08:40:13.015Z,51.216133
2023-04-16T08:41:12.993Z,51.216148
2023-04-16T08:42:12.967Z,51.216068
2023-04-16T08:43:12.961Z,51.216057
2023-04-16T08:44:12.963Z,51.216011
2023-04-16T08:45:12.952Z,51.215988
2023-04-16T08:46:13.111Z,51.216053
2023-04-16T08:47:12.938Z,51.216061
2023-04-16T08:48:12.924Z,51.216110
2023-04-16T08:49:12.938Z,51.216194
2023-04-16T08:50:13.941Z,51.216286
2023-04-16T08:51:12.907Z,51.216171
2023-04-16T08:52:12.910Z,51.216080
2023-04-16T08:53:12.903Z,51.216061
2023-04-16T08:54:12.895Z,51.216084
2023-04-16T08:55:12.894Z,51.216095
2023-04-16T08:56:12.895Z,51.216129
2023-04-16T08:57:12.882Z,51.216129
2023-04-16T08:58:12.860Z,51.216084
2023-04-16T08:59:12.866Z,51.216087
2023-04-16T09:00:12.855Z,51.216175
2023-04-16T09:01:12.864Z,51.216240
2023-04-16T09:02:12.922Z,51.216030
2023-04-16T09:03:12.894Z,51.216045
2023-04-16T09:04:12.865Z,51.216061
2023-04-16T09:05:13.822Z,51.215992
2023-04-16T09:06:12.825Z,51.216103
2023-04-16T09:07:12.807Z,51.216141
2023-04-16T09:08:12.806Z,51.216202
2023-04-16T09:09:12.786Z,51.216194
2023-04-16T09:10:12.790Z,51.216137
2023-04-16T09:11:12.785Z,51.216141
2023-04-16T09:12:12.808Z,51.216099
2023-04-16T09:13:12.773Z,51.216114
2023-04-16T09:14:12.767Z,51.216114
2023-04-16T09:15:12.756Z,51.216148
2023-04-16T09:16:12.810Z,51.216118
2023-04-16T09:17:12.747Z,51.216171
2023-04-16T09:18:12.739Z,51.216145
2023-04-16T09:19:12.716Z,51.216068
2023-04-16T09:20:12.721Z,51.216068
2023-04-16T09:21:12.770Z,51.216072
2023-04-16T09:22:12.734Z,51.216045
2023-04-16T09:23:12.700Z,51.216053
2023-04-16T09:24:12.692Z,51.216103
2023-04-16T09:25:12.695Z,51.216103
2023-04-16T09:26:12.696Z,51.216228
2023-04-16T09:27:12.696Z,51.216194
2023-04-16T09:28:13.643Z,51.216171
2023-04-16T09:29:12.661Z,51.216068
2023-04-16T09:30:12.654Z,51.216129
2023-04-16T09:31:12.645Z,51.216106
2023-04-16T09:32:12.794Z,51.216125
2023-04-16T09:33:12.655Z,51.216099
2023-04-16T09:34:12.630Z,51.216064
2023-04-16T09:35:13.613Z,51.216076
2023-04-16T09:36:12.629Z,51.216045
2023-04-16T09:37:12.617Z,51.216175
2023-04-16T09:38:12.641Z,51.216064
2023-04-16T09:39:12.586Z,51.216072
2023-04-16T09:40:12.586Z,51.216129
2023-04-16T09:41:12.577Z,51.216206
2023-04-16T09:42:12.566Z,51.216179
2023-04-16T09:43:12.585Z,51.216160
2023-04-16T09:44:12.566Z,51.216187
2023-04-16T09:45:12.553Z,51.216156
2023-04-16T09:46:12.577Z,51.216175
2023-04-16T09:47:12.539Z,51.216179
2023-04-16T09:48:12.526Z,51.216293
2023-04-16T09:49:12.735Z,51.216484
2023-04-16T09:50:13.279Z,51.216450
2023-04-16T09:51:13.514Z,51.216118
2023-04-16T09:52:12.505Z,51.215733
2023-04-16T09:53:12.502Z,51.215824
2023-04-16T09:54:12.507Z,51.215843
2023-04-16T09:55:12.490Z,51.216000
2023-04-16T09:56:12.494Z,51.216133
2023-04-16T09:57:12.479Z,51.216393
2023-04-16T09:58:12.466Z,51.216450
2023-04-16T09:59:12.466Z,51.216286
2023-04-16T10:00:12.457Z,51.216206
2023-04-16T10:01:12.487Z,51.215984
2023-04-16T10:02:15.307Z,51.215755
2023-04-16T10:03:12.522Z,51.216080
2023-04-16T10:04:12.468Z,51.216198
2023-04-16T10:05:12.467Z,51.216183
2023-04-16T10:06:12.415Z,51.216160
2023-04-16T10:07:12.412Z,51.216084
2023-04-16T10:08:12.404Z,51.215908
2023-04-16T10:09:12.641Z,51.215984
2023-04-16T10:10:12.423Z,51.216022
2023-04-16T10:11:12.382Z,51.216122
2023-04-16T10:12:12.376Z,51.216183
2023-04-16T10:13:12.374Z,51.216125
2023-04-16T10:14:12.369Z,51.216072
2023-04-16T10:15:12.365Z,51.215996
2023-04-16T10:16:12.382Z,51.216007
2023-04-16T10:17:12.404Z,51.216045
2023-04-16T10:18:12.379Z,51.216122
2023-04-16T10:19:12.523Z,51.216190
2023-04-16T10:20:12.324Z,51.216240
2023-04-16T10:21:12.342Z,51.216129
2023-04-16T10:22:12.308Z,51.216068
2023-04-16T10:23:12.308Z,51.216022
2023-04-16T10:24:12.308Z,51.216076
2023-04-16T10:25:12.301Z,51.216152
2023-04-16T10:26:12.326Z,51.216076
2023-04-16T10:27:12.298Z,51.216125
2023-04-16T10:28:12.276Z,51.216114
2023-04-16T10:29:12.437Z,51.216042
2023-04-16T10:30:12.259Z,51.216091
2023-04-16T10:31:12.322Z,51.216030
2023-04-16T10:32:12.251Z,51.216080
2023-04-16T10:33:12.231Z,51.216068
2023-04-16T10:34:12.240Z,51.216053
2023-04-16T10:35:12.229Z,51.216103
2023-04-16T10:36:12.226Z,51.216095
2023-04-16T10:37:12.234Z,51.216022
2023-04-16T10:38:12.205Z,51.216057
2023-04-16T10:39:13.592Z,51.216034
2023-04-16T10:40:12.193Z,51.216114
2023-04-16T10:41:12.177Z,51.216072
2023-04-16T10:42:12.181Z,51.216095
2023-04-16T10:43:12.181Z,51.216179
2023-04-16T10:44:12.175Z,51.216095
2023-04-16T10:45:12.154Z,51.216087
2023-04-16T10:46:12.178Z,51.216125
2023-04-16T10:47:12.149Z,51.216148
2023-04-16T10:48:12.133Z,51.216091
2023-04-16T10:49:12.169Z,51.216133
2023-04-16T10:50:12.122Z,51.216133
2023-04-16T10:51:12.116Z,51.216064
2023-04-16T10:52:12.138Z,51.216164
2023-04-16T10:53:12.117Z,51.216091
2023-04-16T10:54:12.110Z,51.216072
2023-04-16T10:55:12.086Z,51.216095
2023-04-16T10:56:12.123Z,51.216152
2023-04-16T10:57:12.091Z,51.216118
2023-04-16T10:58:12.072Z,51.216145
2023-04-16T10:59:12.210Z,51.216064
2023-04-16T11:00:12.066Z,51.216038
2023-04-16T11:01:12.280Z,51.216011
2023-04-16T11:02:12.118Z,51.216007
2023-04-16T11:03:12.249Z,51.216087
2023-04-16T11:04:12.154Z,51.216145
2023-04-16T11:05:12.029Z,51.216045
2023-04-16T11:06:12.021Z,51.216026
2023-04-16T11:07:12.014Z,51.216061
2023-04-16T11:08:12.014Z,51.216053
2023-04-16T11:09:12.151Z,51.216030
2023-04-16T11:10:12.026Z,51.216103
2023-04-16T11:11:12.007Z,51.216156
2023-04-16T11:12:11.998Z,51.216072
2023-04-16T11:13:11.991Z,51.215958
2023-04-16T11:14:11.986Z,51.216049
2023-04-16T11:15:11.989Z,51.215977
2023-04-16T11:16:12.026Z,51.215969
2023-04-16T11:17:11.968Z,51.215755
2023-04-16T11:18:11.954Z,51.215786
2023-04-16T11:19:12.074Z,51.215611
2023-04-16T11:20:19.338Z,51.215519
2023-04-16T11:21:12.927Z,51.215538
2023-04-16T11:22:11.947Z,51.215862
2023-04-16T11:23:11.913Z,51.215981
2023-04-16T11:24:11.917Z,51.216106
2023-04-16T11:25:11.924Z,51.216087